Time;durP1;ratioP1;P1;durP2;ratioP2;P2;SDS_P1;SDS_P2;PMS_P1;PMS_P2;Temp;Humidity;BMP_temperature;BMP_pressure;BME280_temperature;BME280_humidity;BME280_pressure;Samples;Min_cycle;Max_cycle;Signal;HPM_P1;HPM_P2
2021/04/04 00:02:29;;;;;;;5.33;2.80;;;;;;;;;;5026415;28;20232;-81
2021/04/04 00:06:03;;;;;;;4.00;3.30;;;;;;;;;;5057198;22;20239;-78
2021/04/04 00:09:06;;;;;;;3.50;3.20;;;;;;;;;;5089747;28;20172;-79
2021/04/04 00:12:45;;;;;;;4.63;2.57;;;;;;;;;;5074145;28;20269;-80
2021/04/04 00:15:55;;;;;;;3.83;2.97;;;;;;;;;;5087910;28;20227;-79
2021/04/04 00:19:26;;;;;;;5.27;3.20;;;;;;;;;;5030613;28;20756;-79
2021/04/04 00:22:48;;;;;;;4.57;2.90;;;;;;;;;;5029096;28;20203;-79
2021/04/04 00:26:19;;;;;;;5.50;3.17;;;;;;;;;;5021979;23;20191;-78
2021/04/04 00:29:17;;;;;;;4.97;3.27;;;;;;;;;;5032331;28;20215;-79
2021/04/04 00:36:01;;;;;;;4.57;3.00;;;;;;;;;;5108461;22;20285;-79
2021/04/04 00:39:38;;;;;;;6.33;3.10;;;;;;;;;;5084010;28;20219;-79
2021/04/04 00:42:52;;;;;;;3.70;2.97;;;;;;;;;;5089443;28;20296;-78
2021/04/04 00:53:29;;;;;;;2.90;2.50;;;;;;;;;;5089519;28;20232;-78
2021/04/04 00:56:53;;;;;;;3.47;2.97;;;;;;;;;;5104030;23;20232;-78
2021/04/04 01:00:29;;;;;;;3.97;2.83;;;;;;;;;;5075715;28;20192;-79
2021/04/04 01:03:52;;;;;;;4.57;2.57;;;;;;;;;;5068727;28;20285;-78
2021/04/04 01:07:14;;;;;;;3.33;2.67;;;;;;;;;;5093524;22;20224;-78
2021/04/04 01:11:07;;;;;;;3.67;2.47;;;;;;;;;;5118060;22;20217;-78
2021/04/04 01:18:09;;;;;;;2.80;2.60;;;;;;;;;;5163220;22;20233;-78
2021/04/04 01:21:27;;;;;;;3.33;2.67;;;;;;;;;;5136314;22;20521;-78
2021/04/04 01:24:44;;;;;;;4.10;2.70;;;;;;;;;;5076190;28;20284;-79
2021/04/04 01:28:12;;;;;;;3.73;2.70;;;;;;;;;;5172196;22;20263;-79
2021/04/04 01:31:44;;;;;;;3.60;2.80;;;;;;;;;;5073303;28;20296;-79
2021/04/04 01:34:56;;;;;;;3.20;2.90;;;;;;;;;;5114716;23;20232;-78
2021/04/04 01:38:18;;;;;;;2.40;2.20;;;;;;;;;;5113993;22;20239;-78
2021/04/04 01:41:54;;;;;;;2.90;2.63;;;;;;;;;;5095064;28;20228;-78
2021/04/04 01:45:04;;;;;;;3.17;2.73;;;;;;;;;;5032965;28;20215;-78
2021/04/04 01:48:45;;;;;;;3.40;2.63;;;;;;;;;;5062937;23;20301;-79
2021/04/04 01:52:59;;;;;;;2.70;2.50;;;;;;;;;;5244752;22;20240;-78
2021/04/04 01:56:10;;;;;;;3.37;2.87;;;;;;;;;;5093424;28;20228;-78
2021/04/04 01:59:18;;;;;;;3.80;3.40;;;;;;;;;;5090520;28;20196;-79
2021/04/04 02:02:44;;;;;;;3.50;3.10;;;;;;;;;;5080313;28;20279;-79
2021/04/04 02:05:52;;;;;;;3.20;2.80;;;;;;;;;;5056352;28;20221;-78
2021/04/04 02:09:22;;;;;;;4.17;3.70;;;;;;;;;;5087337;23;20225;-79
2021/04/04 02:12:30;;;;;;;3.80;3.40;;;;;;;;;;5093404;28;20219;-78
2021/04/04 02:15:44;;;;;;;5.13;3.80;;;;;;;;;;5115015;22;20220;-78
2021/04/04 02:19:04;;;;;;;3.70;3.40;;;;;;;;;;5091022;28;20189;-78
2021/04/04 02:25:40;;;;;;;3.90;3.50;;;;;;;;;;5093961;28;20219;-78
2021/04/04 02:28:56;;;;;;;4.57;3.80;;;;;;;;;;5088432;23;20243;-78
2021/04/04 02:32:50;;;;;;;4.33;3.60;;;;;;;;;;5000475;28;20231;-78
2021/04/04 02:35:54;;;;;;;4.00;3.30;;;;;;;;;;5015165;28;20244;-78
2021/04/04 02:39:41;;;;;;;4.67;3.53;;;;;;;;;;5252195;23;20227;-78
2021/04/04 02:43:08;;;;;;;4.17;3.10;;;;;;;;;;5113812;28;20223;-78
2021/04/04 02:46:45;;;;;;;3.87;3.47;;;;;;;;;;5121363;22;20259;-79
2021/04/04 02:50:17;;;;;;;3.90;3.50;;;;;;;;;;5092391;28;20216;-78
2021/04/04 02:53:21;;;;;;;3.50;3.20;;;;;;;;;;5097985;23;20221;-78
2021/04/04 02:56:36;;;;;;;3.87;3.47;;;;;;;;;;5039427;28;20229;-78
2021/04/04 03:00:16;;;;;;;3.80;3.50;;;;;;;;;;5073497;28;20205;-78
2021/04/04 03:03:33;;;;;;;4.67;3.67;;;;;;;;;;5063225;23;20244;-79
2021/04/04 03:07:12;;;;;;;5.17;3.80;;;;;;;;;;5119203;22;20239;-78
2021/04/04 03:10:58;;;;;;;4.50;3.63;;;;;;;;;;5093748;28;20626;-78
2021/04/04 03:14:46;;;;;;;5.03;3.47;;;;;;;;;;5092044;28;20224;-79
2021/04/04 03:18:01;;;;;;;4.17;3.70;;;;;;;;;;5061154;28;20221;-78
2021/04/04 03:21:32;;;;;;;4.03;3.67;;;;;;;;;;5090621;28;20217;-78
2021/04/04 03:25:17;;;;;;;4.37;3.87;;;;;;;;;;4989974;28;20230;-78
2021/04/04 03:28:29;;;;;;;4.20;3.80;;;;;;;;;;4934001;29;20238;-78
2021/04/04 03:31:48;;;;;;;4.67;3.60;;;;;;;;;;5007652;22;20235;-78
2021/04/04 03:35:11;;;;;;;4.00;3.60;;;;;;;;;;5041020;28;20240;-78
2021/04/04 03:38:46;;;;;;;4.00;3.37;;;;;;;;;;5060496;28;20221;-78
2021/04/04 03:42:13;;;;;;;4.67;3.67;;;;;;;;;;5099372;22;20213;-78
2021/04/04 03:45:33;;;;;;;4.90;3.80;;;;;;;;;;5091465;28;20216;-78
2021/04/04 03:48:44;;;;;;;4.40;3.60;;;;;;;;;;5056784;28;20224;-78
2021/04/04 03:52:08;;;;;;;5.70;4.13;;;;;;;;;;5107773;23;20291;-77
2021/04/04 03:55:23;;;;;;;4.20;3.80;;;;;;;;;;5265016;22;20306;-78
2021/04/04 03:59:03;;;;;;;4.53;3.97;;;;;;;;;;5077559;23;20229;-78
2021/04/04 04:02:38;;;;;;;3.97;3.63;;;;;;;;;;5049621;28;20228;-78
2021/04/04 04:05:48;;;;;;;5.40;3.83;;;;;;;;;;5050213;28;20286;-78
2021/04/04 04:09:08;;;;;;;4.60;4.10;;;;;;;;;;5053724;23;20218;-79
2021/04/04 04:12:40;;;;;;;5.87;4.53;;;;;;;;;;5071767;28;20229;-79
2021/04/04 04:16:15;;;;;;;5.37;3.83;;;;;;;;;;5087297;23;20232;-78
2021/04/04 04:19:56;;;;;;;4.63;4.23;;;;;;;;;;5072109;28;20249;-78
2021/04/04 04:23:22;;;;;;;4.13;3.73;;;;;;;;;;5091428;28;20221;-78
2021/04/04 04:26:52;;;;;;;4.27;3.87;;;;;;;;;;5088625;22;20247;-78
2021/04/04 04:30:07;;;;;;;7.03;4.30;;;;;;;;;;5045872;28;20305;-78
2021/04/04 04:33:59;;;;;;;4.23;3.80;;;;;;;;;;5007217;28;20274;-78
2021/04/04 04:37:36;;;;;;;3.87;3.47;;;;;;;;;;4981882;28;20212;-78
2021/04/04 04:44:35;;;;;;;4.00;3.60;;;;;;;;;;5050925;23;20216;-77
2021/04/04 04:48:06;;;;;;;5.03;3.70;;;;;;;;;;5066714;28;20223;-78
2021/04/04 04:51:27;;;;;;;3.73;3.37;;;;;;;;;;5083639;22;20216;-78
2021/04/04 04:59:37;;;;;;;5.67;4.07;;;;;;;;;;5073040;22;20236;-79
2021/04/04 05:03:23;;;;;;;4.13;3.70;;;;;;;;;;5068668;28;20219;-79
2021/04/04 05:06:57;;;;;;;5.80;3.97;;;;;;;;;;5075318;22;20220;-78
2021/04/04 05:10:23;;;;;;;4.40;3.90;;;;;;;;;;5049416;28;20264;-78
2021/04/04 05:13:37;;;;;;;4.03;3.63;;;;;;;;;;5042893;23;20224;-78
2021/04/04 05:17:18;;;;;;;4.10;3.70;;;;;;;;;;5054606;28;20194;-78
2021/04/04 05:20:26;;;;;;;4.07;3.67;;;;;;;;;;5055387;28;20218;-78
2021/04/04 05:24:02;;;;;;;4.50;4.03;;;;;;;;;;5043626;23;20221;-77
2021/04/04 05:27:30;;;;;;;4.37;3.93;;;;;;;;;;5046959;28;20212;-78
2021/04/04 05:31:14;;;;;;;4.00;3.60;;;;;;;;;;5161557;23;20255;-78
2021/04/04 05:34:43;;;;;;;5.00;3.73;;;;;;;;;;5080952;22;20257;-77
2021/04/04 05:38:14;;;;;;;4.67;3.60;;;;;;;;;;5046096;23;20217;-78
2021/04/04 05:41:43;;;;;;;4.87;3.80;;;;;;;;;;5058243;28;20241;-78
2021/04/04 05:45:23;;;;;;;4.17;3.60;;;;;;;;;;5078254;22;20229;-78
2021/04/04 05:49:01;;;;;;;4.70;4.20;;;;;;;;;;5078893;23;20216;-78
2021/04/04 05:52:55;;;;;;;4.53;3.80;;;;;;;;;;5149921;23;20248;-78
2021/04/04 05:56:31;;;;;;;4.73;4.23;;;;;;;;;;5164885;22;20225;-78
2021/04/04 06:00:02;;;;;;;4.30;3.70;;;;;;;;;;5131541;23;20260;-78
2021/04/04 06:07:13;;;;;;;5.30;3.83;;;;;;;;;;5083594;22;20248;-78
2021/04/04 06:10:33;;;;;;;4.70;4.20;;;;;;;;;;5088330;22;20233;-77
2021/04/04 06:14:00;;;;;;;4.80;4.10;;;;;;;;;;5126853;23;20212;-77
2021/04/04 06:17:45;;;;;;;5.27;3.97;;;;;;;;;;5086552;23;20274;-77
2021/04/04 06:21:41;;;;;;;4.67;4.23;;;;;;;;;;5081028;22;20865;-77
2021/04/04 06:28:23;;;;;;;5.17;3.80;;;;;;;;;;5072748;22;20225;-77
2021/04/04 06:31:48;;;;;;;4.93;4.10;;;;;;;;;;5079851;23;20261;-78
2021/04/04 06:35:18;;;;;;;5.17;4.20;;;;;;;;;;5072758;28;20217;-78
2021/04/04 06:38:38;;;;;;;4.57;3.83;;;;;;;;;;5018338;28;20231;-77
2021/04/04 06:41:59;;;;;;;4.63;3.90;;;;;;;;;;5071860;28;20224;-78
2021/04/04 06:45:24;;;;;;;5.70;4.27;;;;;;;;;;4965975;28;20216;-78
2021/04/04 06:48:39;;;;;;;4.30;3.90;;;;;;;;;;5057075;23;20222;-78
2021/04/04 06:52:20;;;;;;;4.10;3.70;;;;;;;;;;5054890;28;20229;-77
2021/04/04 06:55:46;;;;;;;4.20;3.73;;;;;;;;;;5067803;23;20240;-77
2021/04/04 06:58:54;;;;;;;5.87;4.83;;;;;;;;;;5076732;23;20228;-78
2021/04/04 07:02:14;;;;;;;5.77;4.97;;;;;;;;;;5109692;22;20631;-78
2021/04/04 07:05:38;;;;;;;6.63;5.40;;;;;;;;;;5079507;23;20229;-77
2021/04/04 07:09:02;;;;;;;5.17;3.97;;;;;;;;;;5092881;28;20226;-78
2021/04/04 07:12:02;;;;;;;4.30;3.80;;;;;;;;;;5093110;28;20248;-78
2021/04/04 07:15:14;;;;;;;4.80;4.30;;;;;;;;;;5093299;28;20189;-78
2021/04/04 07:18:08;;;;;;;4.00;3.60;;;;;;;;;;5092372;28;20223;-78
2021/04/04 07:21:09;;;;;;;4.47;3.90;;;;;;;;;;5090760;28;20219;-78
2021/04/04 07:24:48;;;;;;;4.13;3.40;;;;;;;;;;5093630;28;20193;-77
2021/04/04 07:28:23;;;;;;;4.30;3.90;;;;;;;;;;5093138;22;20229;-79
2021/04/04 07:31:31;;;;;;;4.27;3.87;;;;;;;;;;5057416;28;20219;-78
2021/04/04 07:34:45;;;;;;;4.37;3.97;;;;;;;;;;5067804;28;20222;-79
2021/04/04 07:39:06;;;;;;;4.07;3.63;;;;;;;;;;5080251;23;20225;-78
2021/04/04 07:43:09;;;;;;;4.30;3.90;;;;;;;;;;5159547;22;20245;-78
2021/04/04 07:46:40;;;;;;;4.37;3.53;;;;;;;;;;5079744;23;20313;-79
2021/04/04 07:50:20;;;;;;;4.40;3.80;;;;;;;;;;5024225;22;20234;-78
2021/04/04 07:58:00;;;;;;;4.90;4.23;;;;;;;;;;5022751;23;20232;-78
2021/04/04 08:04:58;;;;;;;4.17;3.80;;;;;;;;;;5045873;28;20211;-78
2021/04/04 08:08:51;;;;;;;4.47;3.70;;;;;;;;;;4994916;28;20267;-78
2021/04/04 08:12:33;;;;;;;4.40;3.57;;;;;;;;;;5044147;23;20232;-78
2021/04/04 08:19:46;;;;;;;3.80;3.33;;;;;;;;;;5074025;28;20220;-78
2021/04/04 08:26:21;;;;;;;3.80;3.40;;;;;;;;;;5073768;28;20256;-79
2021/04/04 08:29:55;;;;;;;4.10;3.67;;;;;;;;;;5073394;28;20225;-78
2021/04/04 08:33:47;;;;;;;5.03;3.70;;;;;;;;;;5078923;23;20232;-78
2021/04/04 08:37:10;;;;;;;4.10;3.47;;;;;;;;;;5081119;23;20640;-78
2021/04/04 08:40:30;;;;;;;3.93;3.40;;;;;;;;;;5038973;23;20216;-79
2021/04/04 08:44:29;;;;;;;4.13;3.30;;;;;;;;;;5013376;28;20171;-78
2021/04/04 08:51:56;;;;;;;3.80;3.30;;;;;;;;;;5007538;28;20228;-78
2021/04/04 08:55:34;;;;;;;3.53;3.10;;;;;;;;;;5029836;22;20237;-79
2021/04/04 08:59:37;;;;;;;3.40;3.10;;;;;;;;;;5062108;28;20240;-78
2021/04/04 09:07:06;;;;;;;3.30;2.90;;;;;;;;;;5034708;23;20237;-78
2021/04/04 09:10:41;;;;;;;3.87;3.23;;;;;;;;;;5063464;23;20230;-78
2021/04/04 09:14:06;;;;;;;3.97;2.80;;;;;;;;;;5034534;28;20197;-79
2021/04/04 09:18:01;;;;;;;3.10;2.80;;;;;;;;;;5383210;22;20233;-77
2021/04/04 09:21:34;;;;;;;5.03;2.70;;;;;;;;;;5013245;28;20237;-78
2021/04/04 09:24:55;;;;;;;3.60;2.70;;;;;;;;;;5063552;22;20226;-78
2021/04/04 09:28:42;;;;;;;2.33;2.00;;;;;;;;;;5062056;28;20189;-78
2021/04/04 09:51:18;;;;;;;2.60;2.40;;;;;;;;;;5162678;22;20212;-80
2021/04/04 09:55:05;;;;;;;2.40;2.20;;;;;;;;;;5077863;23;20237;-79
2021/04/04 09:58:26;;;;;;;11.17;2.90;;;;;;;;;;5080594;23;20227;-78
2021/04/04 10:02:00;;;;;;;3.37;2.90;;;;;;;;;;5063153;28;20245;-79
2021/04/04 10:05:10;;;;;;;2.70;2.50;;;;;;;;;;5071059;28;20236;-80
2021/04/04 10:11:58;;;;;;;3.00;2.37;;;;;;;;;;5069240;23;20235;-81
2021/04/04 10:15:20;;;;;;;3.40;2.77;;;;;;;;;;5054692;28;20228;-79
2021/04/04 10:18:38;;;;;;;3.27;2.97;;;;;;;;;;5067065;23;20221;-80
2021/04/04 10:22:02;;;;;;;2.57;2.37;;;;;;;;;;5151289;23;20235;-78
2021/04/04 10:25:15;;;;;;;2.93;2.67;;;;;;;;;;5051018;23;20233;-79
2021/04/04 10:28:14;;;;;;;2.80;2.30;;;;;;;;;;5048984;23;20624;-79
2021/04/04 10:31:26;;;;;;;3.00;2.67;;;;;;;;;;5081276;23;20243;-79
2021/04/04 10:34:57;;;;;;;3.20;2.40;;;;;;;;;;5073289;23;20197;-81
2021/04/04 10:38:29;;;;;;;2.63;2.43;;;;;;;;;;5072223;28;20241;-79
2021/04/04 10:42:23;;;;;;;2.80;2.60;;;;;;;;;;5061781;28;20213;-79
2021/04/04 10:53:30;;;;;;;5.50;3.80;;;;;;;;;;5078575;23;20209;-81
2021/04/04 10:56:56;;;;;;;3.17;2.87;;;;;;;;;;5074174;28;20224;-78
2021/04/04 11:00:30;;;;;;;3.97;2.40;;;;;;;;;;5073037;28;20263;-79
2021/04/04 11:04:17;;;;;;;2.47;2.27;;;;;;;;;;5072453;28;20204;-79
2021/04/04 11:07:31;;;;;;;3.90;3.50;;;;;;;;;;5026095;23;20260;-81
2021/04/04 11:10:49;;;;;;;11.57;10.50;;;;;;;;;;4479752;27;19414079;-78
2021/04/04 11:13:59;;;;;;;3.90;3.50;;;;;;;;;;5084309;22;20289;-78
2021/04/04 11:17:00;;;;;;;5.07;4.20;;;;;;;;;;5000220;28;20295;-80
2021/04/04 11:20:00;;;;;;;2.90;2.60;;;;;;;;;;5084848;22;20221;-80
2021/04/04 11:27:32;;;;;;;2.50;2.30;;;;;;;;;;4990687;28;20267;-81
2021/04/04 11:30:53;;;;;;;1.80;1.70;;;;;;;;;;4990815;28;20279;-80
2021/04/04 11:34:39;;;;;;;3.13;1.80;;;;;;;;;;5035351;23;20230;-81
2021/04/04 11:38:21;;;;;;;4.17;2.13;;;;;;;;;;5029526;28;20218;-80
2021/04/04 11:42:06;;;;;;;2.80;2.50;;;;;;;;;;5139069;22;20218;-78
2021/04/04 11:46:00;;;;;;;2.70;1.87;;;;;;;;;;4988534;28;20243;-80
2021/04/04 11:49:37;;;;;;;2.20;1.90;;;;;;;;;;4990103;28;20229;-79
2021/04/04 11:53:14;;;;;;;2.57;2.10;;;;;;;;;;4988323;23;20230;-79
2021/04/04 11:56:37;;;;;;;2.87;2.07;;;;;;;;;;5114292;23;20252;-79
2021/04/04 11:59:56;;;;;;;1.70;1.60;;;;;;;;;;5045977;28;20190;-80
2021/04/04 12:06:53;;;;;;;13.47;6.93;;;;;;;;;;5047753;28;20232;-80
2021/04/04 12:10:05;;;;;;;2.30;2.10;;;;;;;;;;5019129;28;20218;-79
2021/04/04 12:13:22;;;;;;;2.57;2.10;;;;;;;;;;5046273;28;20214;-80
2021/04/04 12:16:56;;;;;;;3.40;3.10;;;;;;;;;;5014287;28;20211;-79
2021/04/04 12:20:47;;;;;;;2.57;2.03;;;;;;;;;;5014060;28;20531;-79
2021/04/04 12:27:33;;;;;;;2.33;2.00;;;;;;;;;;5033684;23;20250;-79
2021/04/04 12:30:31;;;;;;;2.00;1.70;;;;;;;;;;4993651;28;20231;-79
2021/04/04 12:34:01;;;;;;;1.60;1.50;;;;;;;;;;5034772;22;20230;-80
2021/04/04 12:37:29;;;;;;;2.40;1.70;;;;;;;;;;4988923;28;20218;-80
2021/04/04 12:40:42;;;;;;;3.20;1.67;;;;;;;;;;5015296;28;20222;-80
2021/04/04 12:44:28;;;;;;;2.20;1.90;;;;;;;;;;5146018;23;20267;-79
2021/04/04 12:47:25;;;;;;;2.20;1.90;;;;;;;;;;5029908;28;20222;-79
2021/04/04 12:51:04;;;;;;;2.00;1.57;;;;;;;;;;5050820;23;20298;-78
2021/04/04 12:54:37;;;;;;;1.73;1.50;;;;;;;;;;5011269;28;20521;-78
2021/04/04 13:01:10;;;;;;;1.90;1.50;;;;;;;;;;5088284;23;20200;-78
2021/04/04 13:04:03;;;;;;;1.83;1.70;;;;;;;;;;5090342;23;20243;-78
2021/04/04 13:07:31;;;;;;;1.87;1.30;;;;;;;;;;4367762;27;23261653;-76
2021/04/04 13:11:21;;;;;;;2.10;1.60;;;;;;;;;;5170066;22;20318;-76
2021/04/04 13:14:32;;;;;;;3.43;1.77;;;;;;;;;;5145844;22;20235;-77
2021/04/04 13:18:42;;;;;;;1.43;1.27;;;;;;;;;;5117225;28;20219;-76
2021/04/04 13:30:43;;;;;;;2.03;1.60;;;;;;;;;;5088216;22;20226;-78
2021/04/04 13:34:41;;;;;;;1.67;1.57;;;;;;;;;;5077818;28;20244;-78
2021/04/04 13:37:53;;;;;;;1.57;1.47;;;;;;;;;;5047226;28;20649;-79
2021/04/04 13:45:40;;;;;;;2.73;1.60;;;;;;;;;;5118033;22;20212;-79
2021/04/04 13:52:55;;;;;;;1.87;1.60;;;;;;;;;;5101194;22;20258;-78
2021/04/04 13:56:27;;;;;;;1.50;1.40;;;;;;;;;;5079102;28;20236;-78
2021/04/04 14:00:32;;;;;;;1.90;1.50;;;;;;;;;;5105968;22;20228;-77
2021/04/04 14:04:14;;;;;;;2.60;1.70;;;;;;;;;;5100423;22;20283;-78
2021/04/04 14:07:49;;;;;;;2.10;1.77;;;;;;;;;;5081429;28;20228;-79
2021/04/04 14:14:44;;;;;;;1.70;1.30;;;;;;;;;;5110271;28;20208;-78
2021/04/04 14:18:30;;;;;;;1.70;1.40;;;;;;;;;;5083074;22;20255;-80
2021/04/04 14:22:10;;;;;;;2.77;2.10;;;;;;;;;;5097388;22;20580;-82
2021/04/04 14:29:04;;;;;;;1.60;1.40;;;;;;;;;;5076353;28;20281;-79
2021/04/04 14:37:19;;;;;;;2.17;1.33;;;;;;;;;;5087135;22;20264;-79
2021/04/04 14:40:52;;;;;;;1.37;1.27;;;;;;;;;;5127792;28;20235;-78
2021/04/04 14:48:42;;;;;;;1.50;1.20;;;;;;;;;;5087264;28;20199;-79
2021/04/04 14:52:16;;;;;;;1.63;1.40;;;;;;;;;;5120750;22;20217;-78
2021/04/04 14:55:27;;;;;;;2.00;1.30;;;;;;;;;;5070312;28;20232;-78
2021/04/04 14:58:47;;;;;;;1.47;1.30;;;;;;;;;;5096280;28;20996;-80
2021/04/04 15:02:21;;;;;;;1.63;1.30;;;;;;;;;;5118819;22;20247;-79
2021/04/04 15:08:55;;;;;;;1.43;1.33;;;;;;;;;;4968939;29;20260;-78
2021/04/04 15:12:46;;;;;;;1.40;1.07;;;;;;;;;;4940897;23;20273;-79
2021/04/04 15:20:01;;;;;;;1.37;1.23;;;;;;;;;;5073829;22;20233;-78
2021/04/04 15:24:03;;;;;;;2.03;1.30;;;;;;;;;;5032686;28;20278;-78
2021/04/04 15:31:00;;;;;;;2.40;1.20;;;;;;;;;;5100961;22;20579;-78
2021/04/04 15:35:02;;;;;;;1.40;1.20;;;;;;;;;;5140625;22;20260;-78
2021/04/04 15:39:05;;;;;;;2.67;1.40;;;;;;;;;;5043524;28;20237;-78
2021/04/04 15:46:24;;;;;;;2.27;1.40;;;;;;;;;;5061227;23;20278;-79
2021/04/04 15:49:58;;;;;;;2.20;1.70;;;;;;;;;;5075301;28;20217;-78
2021/04/04 15:53:37;;;;;;;2.97;1.10;;;;;;;;;;5052890;28;20226;-78
2021/04/04 15:57:14;;;;;;;2.03;1.07;;;;;;;;;;5064135;23;20245;-78
2021/04/04 16:00:28;;;;;;;2.00;1.50;;;;;;;;;;5109624;22;20245;-78
2021/04/04 16:03:49;;;;;;;1.40;1.10;;;;;;;;;;5071520;22;20305;-78
2021/04/04 16:07:57;;;;;;;2.37;1.10;;;;;;;;;;5081060;22;20243;-78
2021/04/04 16:12:02;;;;;;;1.23;1.13;;;;;;;;;;5075727;23;20293;-78
2021/04/04 16:19:12;;;;;;;3.53;1.20;;;;;;;;;;5088611;23;20232;-78
2021/04/04 16:23:11;;;;;;;2.47;1.10;;;;;;;;;;5093602;28;20209;-79
2021/04/04 16:27:00;;;;;;;1.67;1.20;;;;;;;;;;5091260;22;20222;-78
2021/04/04 16:31:15;;;;;;;4.13;2.50;;;;;;;;;;5232529;22;20243;-78
2021/04/04 16:34:59;;;;;;;1.47;1.37;;;;;;;;;;5029837;22;20210;-77
2021/04/04 16:38:45;;;;;;;1.83;1.40;;;;;;;;;;5056696;22;20229;-78
2021/04/04 16:41:46;;;;;;;1.93;1.40;;;;;;;;;;5026305;28;20220;-79
2021/04/04 16:44:46;;;;;;;2.43;1.27;;;;;;;;;;5026362;28;20280;-79
2021/04/04 16:47:44;;;;;;;1.97;1.20;;;;;;;;;;5028748;28;20223;-79
2021/04/04 16:50:44;;;;;;;3.03;1.57;;;;;;;;;;5028022;28;20240;-79
2021/04/04 16:53:28;;;;;;;1.73;1.10;;;;;;;;;;5038373;28;20287;-81
2021/04/04 16:56:32;;;;;;;1.70;1.20;;;;;;;;;;5029995;28;20219;-81
2021/04/04 16:59:23;;;;;;;1.83;1.23;;;;;;;;;;5028863;28;20175;-82
2021/04/04 17:02:15;;;;;;;1.20;1.07;;;;;;;;;;5028485;28;20305;-80
2021/04/04 17:05:11;;;;;;;2.30;1.10;;;;;;;;;;5025385;28;20216;-83
2021/04/04 17:08:04;;;;;;;1.83;1.30;;;;;;;;;;5029630;28;20274;-81
2021/04/04 17:11:07;;;;;;;2.13;1.10;;;;;;;;;;5031789;28;20524;-81
2021/04/04 17:13:47;;;;;;;1.37;1.00;;;;;;;;;;5047205;28;20230;-82
2021/04/04 17:16:18;;;;;;;1.20;1.10;;;;;;;;;;5047815;28;20218;-82
2021/04/04 17:18:49;;;;;;;2.00;1.10;;;;;;;;;;5049673;28;20269;-81
2021/04/04 17:21:23;;;;;;;2.13;1.00;;;;;;;;;;5048764;28;20245;-80
2021/04/04 17:24:10;;;;;;;1.80;1.30;;;;;;;;;;5048839;28;20213;-80
2021/04/04 17:27:19;;;;;;;1.20;1.00;;;;;;;;;;5001749;28;20236;-80
2021/04/04 17:30:22;;;;;;;2.30;1.10;;;;;;;;;;5045173;28;20175;-80
2021/04/04 17:33:42;;;;;;;2.67;1.10;;;;;;;;;;5091992;23;20239;-78
2021/04/04 17:37:00;;;;;;;2.00;1.10;;;;;;;;;;5116687;22;20238;-80
2021/04/04 17:40:24;;;;;;;1.30;1.10;;;;;;;;;;5072528;22;20224;-77
2021/04/04 17:43:37;;;;;;;3.13;1.10;;;;;;;;;;4995872;28;20292;-79
2021/04/04 17:46:27;;;;;;;3.43;1.50;;;;;;;;;;5176221;22;20215;-79
2021/04/04 17:49:13;;;;;;;2.10;1.90;;;;;;;;;;5101576;22;20208;-78
2021/04/04 17:51:58;;;;;;;2.47;1.90;;;;;;;;;;5098902;22;20232;-78
2021/04/04 17:55:06;;;;;;;2.40;2.10;;;;;;;;;;5097877;28;20216;-78
2021/04/04 17:58:20;;;;;;;3.60;2.07;;;;;;;;;;5097071;28;20240;-78
2021/04/04 18:04:50;;;;;;;4.63;3.30;;;;;;;;;;5090747;22;20215;-77
2021/04/04 18:11:53;;;;;;;4.17;3.30;;;;;;;;;;5062053;28;20224;-78
2021/04/04 18:15:18;;;;;;;3.70;3.10;;;;;;;;;;5037700;28;20206;-78
2021/04/04 18:18:47;;;;;;;2.80;2.50;;;;;;;;;;5099834;22;20236;-78
2021/04/04 18:25:33;;;;;;;9.43;6.33;;;;;;;;;;5113333;23;20249;-77
2021/04/04 18:32:50;;;;;;;12.47;8.07;;;;;;;;;;5102528;22;20237;-78
2021/04/04 18:36:50;;;;;;;17.47;11.20;;;;;;;;;;5038978;28;20567;-77
2021/04/04 18:43:53;;;;;;;19.80;11.93;;;;;;;;;;5157077;22;20293;-77
2021/04/04 18:47:22;;;;;;;21.07;11.97;;;;;;;;;;5057270;28;20234;-77
2021/04/04 18:50:43;;;;;;;25.47;13.10;;;;;;;;;;5130457;23;20254;-77
2021/04/04 18:53:48;;;;;;;33.33;14.63;;;;;;;;;;5148440;22;20645;-78
2021/04/04 18:57:14;;;;;;;54.40;20.53;;;;;;;;;;5058428;23;20230;-78
2021/04/04 19:00:46;;;;;;;54.20;20.50;;;;;;;;;;5186222;23;20226;-78
2021/04/04 19:04:14;;;;;;;19.10;8.60;;;;;;;;;;5031001;23;20249;-78
2021/04/04 19:07:26;;;;;;;4.20;2.20;;;;;;;;;;5041593;28;20229;-77
2021/04/04 19:11:38;;;;;;;3.73;1.57;;;;;;;;;;5134147;22;20218;-77
2021/04/04 19:15:18;;;;;;;1.93;1.40;;;;;;;;;;5033038;28;20207;-77
2021/04/04 19:18:39;;;;;;;2.63;1.73;;;;;;;;;;5122886;23;20253;-76
2021/04/04 19:22:27;;;;;;;3.10;1.63;;;;;;;;;;5054380;28;20206;-78
2021/04/04 19:25:48;;;;;;;2.03;1.47;;;;;;;;;;5063713;23;20239;-78
2021/04/04 19:29:26;;;;;;;2.93;1.83;;;;;;;;;;4994389;28;20292;-77
2021/04/04 19:33:02;;;;;;;4.50;2.87;;;;;;;;;;5043802;23;20240;-77
2021/04/04 19:36:10;;;;;;;12.63;8.30;;;;;;;;;;5057720;23;20234;-78
2021/04/04 19:40:09;;;;;;;27.30;13.03;;;;;;;;;;5208757;22;20317;-77
2021/04/04 19:43:21;;;;;;;57.80;26.60;;;;;;;;;;5051273;28;20220;-77
2021/04/04 19:46:05;;;;;;;18.73;10.50;;;;;;;;;;5137018;22;20200;-78
2021/04/04 19:49:51;;;;;;;8.23;5.83;;;;;;;;;;5068215;23;20245;-77
2021/04/04 19:53:35;;;;;;;8.13;5.83;;;;;;;;;;5062140;28;20224;-77
2021/04/04 19:57:32;;;;;;;5.07;4.47;;;;;;;;;;5054477;28;20217;-77
2021/04/04 20:00:34;;;;;;;5.80;4.80;;;;;;;;;;5045986;28;20531;-78
2021/04/04 20:03:43;;;;;;;7.97;4.20;;;;;;;;;;5135832;23;20245;-76
2021/04/04 20:06:36;;;;;;;7.60;3.97;;;;;;;;;;5125459;22;20226;-78
2021/04/04 20:10:31;;;;;;;6.03;4.47;;;;;;;;;;5031576;28;20237;-77
2021/04/04 20:13:23;;;;;;;7.67;3.97;;;;;;;;;;5133520;23;20233;-77
2021/04/04 20:16:28;;;;;;;5.00;3.87;;;;;;;;;;5052230;23;20291;-77
2021/04/04 20:19:43;;;;;;;5.80;4.13;;;;;;;;;;5042065;28;20218;-77
2021/04/04 20:26:34;;;;;;;4.83;3.97;;;;;;;;;;5052555;23;20289;-77
2021/04/04 20:30:00;;;;;;;5.90;3.80;;;;;;;;;;4996115;23;20230;-77
2021/04/04 20:34:23;;;;;;;6.07;3.90;;;;;;;;;;4991345;28;20239;-77
2021/04/04 20:38:26;;;;;;;4.53;3.50;;;;;;;;;;5039921;23;20236;-77
2021/04/04 20:42:15;;;;;;;4.80;3.20;;;;;;;;;;5048327;23;20234;-78
2021/04/04 20:45:41;;;;;;;4.63;3.50;;;;;;;;;;5221074;22;20225;-77
2021/04/04 20:49:15;;;;;;;4.57;3.70;;;;;;;;;;5058168;22;20234;-77
2021/04/04 20:53:05;;;;;;;4.37;3.73;;;;;;;;;;5070979;22;20230;-77
2021/04/04 20:57:01;;;;;;;5.80;3.90;;;;;;;;;;5001687;28;20261;-77
2021/04/04 21:00:24;;;;;;;4.57;3.87;;;;;;;;;;5020635;22;20236;-77
2021/04/04 21:12:08;;;;;;;5.53;3.77;;;;;;;;;;4182183;22;20229;-77
2021/04/04 21:15:40;;;;;;;7.57;4.67;;;;;;;;;;5082878;22;20234;-79
2021/04/04 21:19:20;;;;;;;7.20;4.33;;;;;;;;;;5054687;28;20218;-77
2021/04/04 21:22:54;;;;;;;4.70;4.00;;;;;;;;;;5136046;22;20249;-77
2021/04/04 21:26:12;;;;;;;5.87;4.47;;;;;;;;;;5057737;22;20213;-77
2021/04/04 21:30:06;;;;;;;5.43;4.40;;;;;;;;;;5040651;22;20260;-77
2021/04/04 21:33:47;;;;;;;6.30;4.50;;;;;;;;;;5004146;28;20614;-77
2021/04/04 21:37:30;;;;;;;6.17;4.73;;;;;;;;;;4983194;28;20544;-77
2021/04/04 21:41:17;;;;;;;5.17;4.50;;;;;;;;;;5000805;22;20216;-77
2021/04/04 21:48:39;;;;;;;5.97;4.63;;;;;;;;;;5056149;28;20240;-77
2021/04/04 21:52:39;;;;;;;5.87;4.50;;;;;;;;;;5135498;22;20219;-77
2021/04/04 21:56:13;;;;;;;5.03;4.17;;;;;;;;;;4998762;22;20239;-77
2021/04/04 22:07:24;;;;;;;6.73;4.10;;;;;;;;;;4952908;29;20244;-77
2021/04/04 22:11:21;;;;;;;5.07;4.20;;;;;;;;;;4972102;23;20190;-77
2021/04/04 22:15:08;;;;;;;5.07;4.53;;;;;;;;;;4957636;29;20201;-78
2021/04/04 22:19:13;;;;;;;5.00;4.20;;;;;;;;;;5057985;23;20237;-78
2021/04/04 22:23:07;;;;;;;7.67;4.73;;;;;;;;;;5034664;28;20241;-78
2021/04/04 22:26:52;;;;;;;5.57;4.50;;;;;;;;;;5037467;23;20226;-78
2021/04/04 22:30:29;;;;;;;5.87;4.40;;;;;;;;;;5038771;28;20174;-78
2021/04/04 22:33:43;;;;;;;5.70;4.77;;;;;;;;;;5070508;22;20282;-78
2021/04/04 22:37:21;;;;;;;7.53;5.17;;;;;;;;;;5047851;22;20246;-77
2021/04/04 22:41:06;;;;;;;6.47;4.97;;;;;;;;;;5010818;23;20243;-77
2021/04/04 22:48:21;;;;;;;6.77;4.57;;;;;;;;;;5035112;28;20287;-79
2021/04/04 22:51:32;;;;;;;6.30;4.87;;;;;;;;;;5001349;28;20266;-78
2021/04/04 22:55:10;;;;;;;5.77;4.60;;;;;;;;;;5035432;23;20231;-78
2021/04/04 22:58:58;;;;;;;9.23;5.27;;;;;;;;;;5056660;22;20243;-78
2021/04/04 23:02:08;;;;;;;6.57;5.07;;;;;;;;;;5032547;28;20207;-78
2021/04/04 23:05:33;;;;;;;6.67;4.83;;;;;;;;;;5374906;22;20188;-78
2021/04/04 23:08:53;;;;;;;7.10;5.13;;;;;;;;;;5010007;28;20204;-78
2021/04/04 23:12:00;;;;;;;6.03;4.50;;;;;;;;;;5025147;22;20187;-77
2021/04/04 23:15:21;;;;;;;7.93;5.00;;;;;;;;;;5035755;22;20263;-78
2021/04/04 23:21:34;;;;;;;5.47;4.93;;;;;;;;;;5017361;28;20238;-78
2021/04/04 23:25:04;;;;;;;5.33;4.57;;;;;;;;;;5050725;22;20310;-78
2021/04/04 23:28:21;;;;;;;8.00;4.97;;;;;;;;;;4992450;28;20262;-78
2021/04/04 23:31:38;;;;;;;6.53;4.83;;;;;;;;;;4971713;28;20304;-78
2021/04/04 23:34:53;;;;;;;8.50;5.07;;;;;;;;;;5003668;23;20238;-78
2021/04/04 23:38:16;;;;;;;5.93;4.97;;;;;;;;;;5027301;28;20198;-78
2021/04/04 23:41:41;;;;;;;7.70;5.50;;;;;;;;;;5033393;23;20234;-78
2021/04/04 23:45:17;;;;;;;8.33;5.00;;;;;;;;;;5023531;22;20222;-78
2021/04/04 23:48:51;;;;;;;6.90;5.30;;;;;;;;;;5009934;28;20266;-78
2021/04/04 23:51:54;;;;;;;7.80;5.10;;;;;;;;;;5032151;28;20218;-77
2021/04/04 23:55:32;;;;;;;6.23;4.83;;;;;;;;;;4955831;29;20228;-77
2021/04/04 23:59:06;;;;;;;8.20;5.17;;;;;;;;;;5000222;22;20256;-78
